createdAt,value
2022-12-23T00:01:48.116Z,99853.63
2022-12-23T00:04:17.914Z,99854.77
2022-12-23T00:06:47.360Z,99858.59
2022-12-23T00:09:19.161Z,99856.03
2022-12-23T00:12:02.848Z,99856.29
2022-12-23T00:14:50.716Z,99853.88
2022-12-23T00:17:23.490Z,99854.48
2022-12-23T00:19:56.284Z,99858.31
2022-12-23T00:23:05.746Z,99843.67
2022-12-23T00:25:44.027Z,99840.48
2022-12-23T00:28:39.529Z,99849.20
2022-12-23T00:31:09.757Z,99851.16
2022-12-23T00:33:41.969Z,99852.07
2022-12-23T00:36:17.983Z,99849.80
2022-12-23T00:39:06.298Z,99848.80
2022-12-23T00:41:56.022Z,99848.28
2022-12-23T00:44:39.511Z,99854.25
2022-12-23T00:47:29.977Z,99854.30
2022-12-23T00:49:59.522Z,99857.05
2022-12-23T00:52:28.918Z,99850.56
2022-12-23T00:54:59.367Z,99861.11
2022-12-23T00:57:28.612Z,99863.02
2022-12-23T01:00:00.885Z,99861.73
2022-12-23T01:02:50.093Z,99864.16
2022-12-23T01:05:38.328Z,99867.16
2022-12-23T01:08:10.502Z,99869.26
2022-12-23T01:10:41.090Z,99871.60
2022-12-23T01:13:10.478Z,99872.66
2022-12-23T01:15:44.187Z,99869.89
2022-12-23T01:18:17.944Z,99868.51
2022-12-23T01:20:49.884Z,99867.79
2022-12-23T01:23:19.352Z,99860.23
2022-12-23T01:25:57.583Z,99857.55
2022-12-23T01:28:28.051Z,99859.89
2022-12-23T01:30:59.293Z,99868.68
2022-12-23T01:33:28.834Z,99866.69
2022-12-23T01:36:02.329Z,99871.62
2022-12-23T01:38:39.059Z,99860.10
2022-12-23T01:41:29.265Z,99866.41
2022-12-23T01:43:58.688Z,99869.25
2022-12-23T01:46:30.200Z,99873.52
2022-12-23T01:48:59.582Z,99868.59
2022-12-23T01:51:30.271Z,99864.05
2022-12-23T01:54:01.878Z,99866.05
2022-12-23T01:56:34.843Z,99863.30
2022-12-23T01:59:09.010Z,99870.38
2022-12-23T02:01:57.195Z,99873.42
2022-12-23T02:04:26.919Z,99875.80
2022-12-23T02:07:14.387Z,99876.14
2022-12-23T02:09:43.936Z,99882.78
2022-12-23T02:12:38.810Z,99888.79
2022-12-23T02:15:50.433Z,99891.64
2022-12-23T02:18:39.110Z,99888.99
2022-12-23T02:21:21.787Z,99884.69
2022-12-23T02:24:32.336Z,99882.48
2022-12-23T02:27:17.292Z,99883.08
2022-12-23T02:30:06.660Z,99881.41
2022-12-23T02:32:58.851Z,99884.92
2022-12-23T02:35:44.133Z,99879.71
2022-12-23T02:38:18.733Z,99878.80
2022-12-23T02:40:58.874Z,99874.40
2022-12-23T02:43:36.506Z,99879.39
2022-12-23T02:46:11.083Z,99885.45
2022-12-23T02:48:45.818Z,99887.61
2022-12-23T02:51:16.561Z,99884.06
2022-12-23T02:53:51.351Z,99882.78
2022-12-23T02:56:23.442Z,99882.52
2022-12-23T02:58:57.022Z,99884.45
2022-12-23T03:01:29.774Z,99881.27
2022-12-23T03:04:00.908Z,99876.80
2022-12-23T03:06:34.844Z,99887.30
2022-12-23T03:09:04.508Z,99890.82
2022-12-23T03:11:47.061Z,99892.23
2022-12-23T03:14:34.592Z,99884.58
2022-12-23T03:17:18.420Z,99881.58
2022-12-23T03:19:54.355Z,99882.71
2022-12-23T03:22:32.725Z,99880.26
2022-12-23T03:25:08.469Z,99877.05
2022-12-23T03:27:43.176Z,99875.63
2022-12-23T03:30:15.008Z,99877.06
2022-12-23T03:32:49.604Z,99871.55
2022-12-23T03:35:27.089Z,99879.18
2022-12-23T03:38:00.717Z,99872.58
2022-12-23T03:40:36.090Z,99866.52
2022-12-23T03:43:11.453Z,99868.45
2022-12-23T03:45:49.863Z,99860.30
2022-12-23T03:48:23.883Z,99862.60
2022-12-23T03:50:57.894Z,99861.95
2022-12-23T03:53:31.087Z,99863.27
2022-12-23T03:56:17.454Z,99857.86
2022-12-23T03:58:53.512Z,99856.77
2022-12-23T04:01:31.982Z,99854.41
2022-12-23T04:04:09.030Z,99852.77
2022-12-23T04:06:48.812Z,99849.97
2022-12-23T04:09:22.328Z,99848.95
2022-12-23T04:11:53.165Z,99853.35
2022-12-23T04:17:21.694Z,99855.67
2022-12-23T04:19:52.992Z,99860.69
2022-12-23T04:22:26.405Z,99867.72
2022-12-23T04:24:57.955Z,99868.77
2022-12-23T04:27:30.122Z,99868.11
2022-12-23T04:29:59.387Z,99876.13
2022-12-23T04:32:28.593Z,99877.08
2022-12-23T04:34:57.929Z,99874.27
2022-12-23T04:37:30.114Z,99869.05
2022-12-23T04:39:59.603Z,99868.66
2022-12-23T04:42:36.910Z,99866.84
2022-12-23T04:45:08.248Z,99869.35
2022-12-23T04:47:37.796Z,99879.44
2022-12-23T04:50:17.433Z,99878.73
2022-12-23T04:52:46.801Z,99879.05
2022-12-23T04:55:16.759Z,99879.34
2022-12-23T04:57:48.521Z,99881.87
2022-12-23T05:00:19.587Z,99881.09
2022-12-23T05:02:49.192Z,99876.46
2022-12-23T05:05:19.466Z,99873.38
2022-12-23T05:07:50.246Z,99873.45
2022-12-23T05:10:19.792Z,99874.17
2022-12-23T05:12:49.062Z,99868.59
2022-12-23T05:15:18.467Z,99871.86
2022-12-23T05:17:48.073Z,99865.70
2022-12-23T05:20:17.609Z,99869.84
2022-12-23T05:22:46.917Z,99873.52
2022-12-23T05:25:16.546Z,99879.88
2022-12-23T05:27:45.985Z,99881.85
2022-12-23T05:30:15.793Z,99880.04
2022-12-23T05:32:46.349Z,99883.27
2022-12-23T05:35:15.923Z,99882.25
2022-12-23T05:37:45.498Z,99885.31
2022-12-23T05:40:33.983Z,99885.94
2022-12-23T05:43:10.471Z,99875.83
2022-12-23T06:24:30.356Z,99900.79
2022-12-23T06:27:23.244Z,99896.75
2022-12-23T06:29:52.603Z,99894.61
2022-12-23T06:32:22.565Z,99893.50
2022-12-23T06:34:52.720Z,99891.11
2022-12-23T06:37:25.182Z,99903.44
2022-12-23T06:39:56.449Z,99901.13
2022-12-23T06:42:25.776Z,99897.19
2022-12-23T06:45:36.473Z,99899.06
2022-12-23T06:48:06.902Z,99902.97
2022-12-23T06:50:36.384Z,99897.98
2022-12-23T06:53:05.786Z,99908.33
2022-12-23T06:55:42.508Z,99900.64
2022-12-23T06:58:14.571Z,99893.84
2022-12-23T07:00:58.290Z,99893.20
2022-12-23T07:03:42.931Z,99890.85
2022-12-23T07:06:40.086Z,99900.45
2022-12-23T07:09:10.017Z,99904.02
2022-12-23T07:11:41.762Z,99903.02
2022-12-23T07:14:11.581Z,99902.13
2022-12-23T07:16:53.697Z,99907.21
2022-12-23T07:19:23.513Z,99909.80
2022-12-23T07:21:55.182Z,99911.37
2022-12-23T07:24:24.837Z,99911.20
2022-12-23T07:26:55.307Z,99910.77
2022-12-23T07:29:24.633Z,99909.40
2022-12-23T07:31:55.789Z,99899.28
2022-12-23T07:34:25.138Z,99903.46
2022-12-23T07:37:22.507Z,99894.81
2022-12-23T07:39:51.919Z,99893.75
2022-12-23T07:42:51.140Z,99892.47
2022-12-23T07:45:14.131Z,99891.49
2022-12-23T07:48:23.239Z,99887.89
2022-12-23T07:51:38.546Z,99889.98
2022-12-23T07:54:24.224Z,99892.73
2022-12-23T07:57:04.240Z,99888.65
2022-12-23T08:11:08.938Z,99895.53
2022-12-23T08:13:43.448Z,99902.50
2022-12-23T08:16:13.100Z,99905.18
2022-12-23T08:18:42.765Z,99903.83
2022-12-23T08:21:14.771Z,99905.75
2022-12-23T08:23:44.476Z,99902.70
2022-12-23T08:26:17.979Z,99903.55
2022-12-23T08:28:48.106Z,99899.25
2022-12-23T08:31:19.959Z,99897.38
2022-12-23T08:33:53.214Z,99896.20
2022-12-23T08:36:39.341Z,99890.63
2022-12-23T08:39:38.697Z,99889.31
2022-12-23T08:42:16.542Z,99892.44
2022-12-23T08:45:22.235Z,99891.86
2022-12-23T08:48:19.725Z,99895.79
2022-12-23T08:50:55.946Z,99894.45
2022-12-23T08:53:25.476Z,99891.46
2022-12-23T08:56:50.447Z,99880.60
2022-12-23T09:00:29.674Z,99881.02
2022-12-23T09:04:15.696Z,99880.15
2022-12-23T09:19:01.134Z,99869.35
2022-12-23T09:32:33.991Z,99845.30
2022-12-23T09:35:04.111Z,99838.48
2022-12-23T09:37:33.444Z,99838.16
2022-12-23T09:40:03.599Z,99833.79
2022-12-23T09:42:50.424Z,99830.48
2022-12-23T09:45:40.509Z,99826.52
2022-12-23T09:48:16.437Z,99825.48
2022-12-23T09:50:46.265Z,99823.80
2022-12-23T09:53:18.615Z,99822.88
2022-12-23T09:55:55.245Z,99821.98
2022-12-23T09:58:30.256Z,99823.44
2022-12-23T10:01:16.129Z,99824.63
2022-12-23T10:04:08.248Z,99823.48
2022-12-23T10:06:40.085Z,99822.23
2022-12-23T10:09:12.760Z,99821.94
2022-12-23T10:11:44.757Z,99819.86
2022-12-23T10:14:19.769Z,99815.50
2022-12-23T10:16:53.151Z,99810.61
2022-12-23T10:19:28.072Z,99804.30
2022-12-23T10:22:32.964Z,99802.60
2022-12-23T10:25:04.010Z,99793.20
2022-12-23T10:27:37.153Z,99790.58
2022-12-23T10:30:42.471Z,99790.22
2022-12-23T10:33:11.998Z,99785.66
2022-12-23T10:35:48.926Z,99785.70
2022-12-23T10:38:32.470Z,99784.85
2022-12-23T10:41:10.730Z,99780.21
2022-12-23T10:43:57.071Z,99777.54
2022-12-23T10:46:36.279Z,99776.97
2022-12-23T10:49:15.823Z,99773.95
2022-12-23T10:51:49.895Z,99775.52
2022-12-23T10:54:23.925Z,99780.36
2022-12-23T10:56:54.305Z,99778.52
2022-12-23T10:59:27.675Z,99776.82
2022-12-23T11:02:05.222Z,99783.74
2022-12-23T11:04:40.897Z,99778.81
2022-12-23T11:10:32.747Z,99777.19
2022-12-23T11:13:39.234Z,99780.19
2022-12-23T11:16:46.036Z,99780.48
2022-12-23T11:19:21.309Z,99780.88
2022-12-23T11:21:56.677Z,99780.96
2022-12-23T11:24:33.652Z,99784.85
2022-12-23T11:27:13.057Z,99787.30
2022-12-23T11:29:48.816Z,99787.13
2022-12-23T11:32:23.591Z,99787.92
2022-12-23T11:34:55.878Z,99789.23
2022-12-23T11:37:37.974Z,99796.45
2022-12-23T11:40:22.384Z,99793.98
2022-12-23T11:42:56.591Z,99791.20
2022-12-23T11:45:28.633Z,99791.78
2022-12-23T11:47:58.776Z,99794.84
2022-12-23T11:51:02.721Z,99797.84
2022-12-23T11:53:44.253Z,99793.86
2022-12-23T11:56:15.910Z,99782.55
2022-12-23T11:58:55.381Z,99780.89
2022-12-23T12:01:25.341Z,99767.23
2022-12-23T12:04:07.734Z,99765.29
2022-12-23T12:06:42.579Z,99758.33
2022-12-23T12:09:13.813Z,99761.23
2022-12-23T12:12:34.093Z,99755.02
2022-12-23T12:15:26.013Z,99765.27
2022-12-23T12:17:57.979Z,99773.91
2022-12-23T12:20:31.933Z,99776.58
2022-12-23T12:23:06.611Z,99780.65
2022-12-23T12:25:42.464Z,99786.97
2022-12-23T12:28:19.978Z,99788.05
2022-12-23T12:30:56.292Z,99783.08
2022-12-23T12:33:33.800Z,99785.65
2022-12-23T12:36:14.226Z,99788.93
2022-12-23T12:39:30.945Z,99789.16
2022-12-23T12:42:06.189Z,99791.69
2022-12-23T12:44:43.448Z,99794.38
2022-12-23T12:47:52.166Z,99798.30
2022-12-23T12:50:15.436Z,99803.31
2022-12-23T12:52:45.037Z,99807.45
2022-12-23T12:55:23.056Z,99808.98
2022-12-23T12:57:58.717Z,99815.96
2022-12-23T13:00:30.085Z,99816.29
2022-12-23T13:03:20.703Z,99819.20
2022-12-23T13:06:05.214Z,99823.02
2022-12-23T13:08:57.349Z,99828.27
2022-12-23T13:11:43.331Z,99829.91
2022-12-23T13:14:33.301Z,99830.61
2022-12-23T13:17:14.222Z,99829.71
2022-12-23T13:19:51.426Z,99828.80
2022-12-23T13:22:27.772Z,99830.73
2022-12-23T13:25:04.238Z,99834.02
2022-12-23T13:27:39.401Z,99832.79
2022-12-23T13:30:13.586Z,99831.30
2022-12-23T13:33:15.673Z,99831.45
2022-12-23T13:40:00.125Z,99830.13
2022-12-23T13:43:42.515Z,99828.91
2022-12-23T13:46:35.140Z,99828.88
2022-12-23T13:49:13.309Z,99821.80
2022-12-23T13:51:51.216Z,99816.96
2022-12-23T13:58:19.844Z,99818.58
2022-12-23T14:00:58.706Z,99811.66
2022-12-23T14:03:34.656Z,99821.35
2022-12-23T14:06:41.747Z,99824.56
2022-12-23T14:09:47.228Z,99831.83
2022-12-23T14:12:27.128Z,99837.65
2022-12-23T14:19:19.590Z,99826.77
2022-12-23T14:22:58.295Z,99829.89
2022-12-23T14:25:52.583Z,99840.61
2022-12-23T14:28:58.118Z,99847.40
2022-12-23T14:31:37.007Z,99848.31
2022-12-23T14:59:37.786Z,99861.15
2022-12-23T15:02:27.824Z,99867.27
2022-12-23T15:05:14.031Z,99864.01
2022-12-23T15:07:49.712Z,99871.07
2022-12-23T15:10:26.053Z,99873.06
2022-12-23T15:13:03.237Z,99870.81
2022-12-23T15:15:38.865Z,99872.75
2022-12-23T15:18:14.824Z,99868.48
2022-12-23T15:20:59.151Z,99869.42
2022-12-23T15:23:33.391Z,99870.69
2022-12-23T15:26:06.921Z,99873.61
2022-12-23T15:28:42.921Z,99873.34
2022-12-23T15:31:29.731Z,99883.35
2022-12-23T15:34:31.498Z,99883.64
2022-12-23T15:37:18.465Z,99892.27
2022-12-23T15:40:00.291Z,99894.27
2022-12-23T15:42:38.754Z,99895.02
2022-12-23T15:46:35.385Z,99896.65
2022-12-23T15:50:25.451Z,99905.88
2022-12-23T15:53:33.199Z,99903.92
2022-12-23T15:56:09.771Z,99908.15
2022-12-23T15:58:45.187Z,99900.05
2022-12-23T16:01:26.413Z,99906.06
2022-12-23T16:06:25.598Z,99919.80
2022-12-23T16:09:04.083Z,99918.92
2022-12-23T16:12:34.515Z,99920.56
2022-12-23T16:15:28.055Z,99917.16
2022-12-23T16:18:14.658Z,99920.63
2022-12-23T16:20:50.371Z,99924.05
2022-12-23T16:23:24.131Z,99924.77
2022-12-23T16:25:57.450Z,99923.24
2022-12-23T16:29:14.288Z,99914.61
2022-12-23T16:32:43.371Z,99908.81
2022-12-23T16:35:59.611Z,99906.85
2022-12-23T16:38:46.427Z,99918.35
2022-12-23T16:44:44.801Z,99928.07
2022-12-23T16:47:26.604Z,99913.56
2022-12-23T16:49:59.433Z,99915.07
2022-12-23T16:53:03.074Z,99922.70
2022-12-23T16:55:35.732Z,99917.25
2022-12-23T16:58:08.423Z,99921.29
2022-12-23T17:00:46.836Z,99930.02
2022-12-23T17:03:21.649Z,99933.19
2022-12-23T17:06:21.761Z,99935.46
2022-12-23T17:08:56.746Z,99937.08
2022-12-23T17:11:37.606Z,99934.50
2022-12-23T17:14:18.983Z,99934.23
2022-12-23T17:16:58.983Z,99934.88
2022-12-23T17:19:34.657Z,99938.58
2022-12-23T17:22:37.104Z,99935.44
2022-12-23T17:25:11.400Z,99921.15
2022-12-23T17:32:18.063Z,99917.98
2022-12-23T17:35:26.207Z,99909.84
2022-12-23T17:43:31.020Z,99933.91
2022-12-23T17:46:45.883Z,99947.86
2022-12-23T17:49:18.528Z,99945.39
2022-12-23T17:51:51.176Z,99934.31
2022-12-23T17:55:18.350Z,99941.31
2022-12-23T17:57:51.798Z,99941.58
2022-12-23T18:00:33.841Z,99942.66
2022-12-23T18:03:21.875Z,99945.51
2022-12-23T18:06:01.669Z,99943.48
2022-12-23T18:09:09.618Z,99943.02
2022-12-23T18:12:25.122Z,99950.27
2022-12-23T18:14:58.449Z,99955.56
2022-12-23T18:17:31.389Z,99961.20
2022-12-23T18:20:29.781Z,99963.38
2022-12-23T18:23:02.991Z,99962.10
2022-12-23T18:26:11.744Z,99962.90
2022-12-23T18:28:45.025Z,99965.35
2022-12-23T18:32:39.025Z,99957.81
2022-12-23T18:47:21.113Z,99961.36
2022-12-23T18:49:54.577Z,99957.33
2022-12-23T18:52:50.405Z,99960.54
2022-12-23T18:55:20.334Z,99961.01
2022-12-23T19:02:00.195Z,99969.47
2022-12-23T19:04:30.088Z,99978.61
2022-12-23T19:07:00.643Z,99975.27
2022-12-23T19:13:44.404Z,99980.88
2022-12-23T19:16:16.845Z,99987.31
2022-12-23T19:19:03.047Z,99989.59
2022-12-23T19:21:59.991Z,99988.45
2022-12-23T19:33:28.312Z,99970.84
2022-12-23T20:02:09.582Z,99975.68
2022-12-23T20:47:40.419Z,99975.63
2022-12-23T21:41:09.123Z,100024.19
2022-12-23T22:11:53.080Z,100027.09
2022-12-23T22:15:11.873Z,100018.15
2022-12-23T23:06:25.752Z,100011.71
2022-12-23T23:20:49.286Z,100009.10
